New Creation — 3EGO6 — position and weather

sailwx.info

Track history (hours):
 
Tides and Currents Weather Stations Pressure Air Temp Water Temp Dewpoint Dewpoint Depression Visibility Wind Speed Wind Dir Waves Ship Positions

New Creation

Last reported at 2017-Feb-15 00:33 UTC. Time now 2017-Feb-19 21:09 UTC.
Position S 33°07' E 152°28'.

Length 176 m; draft 10.5 m.

Type: Cargo ship. MMSI: 353507000.

Date/timePositionNaut miles runAvg speedWind from/ knotsBaromVisibWave heightAir tempDewpointWater temp
2017-Feb-15 00:33S 33°07' E 152°28'1414.3
2017-Feb-14 23:33S 32°54' E 152°35'1413.9
2017-Feb-14 22:33S 32°41' E 152°42'30113.7
2017-Feb-14 00:33S 27°45' E 153°46'3812.6
2017-Feb-13 21:31S 27°07' E 153°44'  
2017-Feb-07 21:06S 26°55' E 153°46'611.9
2017-Feb-07 20:34S 27°01' E 153°46'1211.7
2017-Feb-07 19:32S 27°13' E 153°47'2211.4
2017-Feb-07 17:34S 27°36' E 153°49'1211.8
2017-Feb-07 16:34S 27°48' E 153°50'22911.9
2017-Feb-06 21:22S 31°34' E 153°10'1012.0
2017-Feb-06 20:31S 31°44' E 153°07'2611.1
2017-Feb-06 18:11S 32°09' E 152°58'710.9
2017-Feb-06 17:30S 32°16' E 152°56'2110.9
2017-Feb-06 15:34S 32°36' E 152°48'1110.9
2017-Feb-06 14:34S 32°46' E 152°43'1111.1
2017-Feb-06 13:34S 32°56' E 152°38'1611.9
2017-Feb-06 12:11S 33°12' E 152°30'812.5
2017-Feb-06 11:34S 33°19' E 152°27'6512.6
2017-Feb-06 06:24S 34°19' E 151°56'3612.3
2017-Feb-06 03:26S 34°52' E 151°39'  
Track history (hours):
 
Tides and Currents Weather Stations Pressure Air Temp Water Temp Dewpoint Dewpoint Depression Visibility Wind Speed Wind Dir Waves Ship Positions

New Creation

Last reported at 2017-Feb-15 00:33 UTC. Time now 2017-Feb-19 21:09 UTC.
Position S 33°07' E 152°28'.

Length 176 m; draft 10.5 m.

Type: Cargo ship. MMSI: 353507000.

Date/timePositionNaut miles runAvg speedWind from/ knotsBaromVisibWave heightAir tempDewpointWater temp
2017-Feb-15 00:33S 33°07' E 152°28'1414.3
2017-Feb-14 23:33S 32°54' E 152°35'1413.9
2017-Feb-14 22:33S 32°41' E 152°42'30113.7
2017-Feb-14 00:33S 27°45' E 153°46'3812.6
2017-Feb-13 21:31S 27°07' E 153°44'  
2017-Feb-07 21:06S 26°55' E 153°46'611.9
2017-Feb-07 20:34S 27°01' E 153°46'1211.7
2017-Feb-07 19:32S 27°13' E 153°47'2211.4
2017-Feb-07 17:34S 27°36' E 153°49'1211.8
2017-Feb-07 16:34S 27°48' E 153°50'22911.9
2017-Feb-06 21:22S 31°34' E 153°10'1012.0
2017-Feb-06 20:31S 31°44' E 153°07'2611.1
2017-Feb-06 18:11S 32°09' E 152°58'710.9
2017-Feb-06 17:30S 32°16' E 152°56'2110.9
2017-Feb-06 15:34S 32°36' E 152°48'1110.9
2017-Feb-06 14:34S 32°46' E 152°43'1111.1
2017-Feb-06 13:34S 32°56' E 152°38'1611.9
2017-Feb-06 12:11S 33°12' E 152°30'812.5
2017-Feb-06 11:34S 33°19' E 152°27'6512.6
2017-Feb-06 06:24S 34°19' E 151°56'3612.3
2017-Feb-06 03:26S 34°52' E 151°39'  

Dump ship's entire track history